createdAt,value
2023-01-22T00:01:14.653Z,21.90
2023-01-22T00:03:44.726Z,23.80
2023-01-22T00:06:14.193Z,23.40
2023-01-22T00:08:41.591Z,24.10
2023-01-22T00:11:11.109Z,22.73
2023-01-22T00:13:38.387Z,25.70
2023-01-22T00:16:05.971Z,22.77
2023-01-22T00:18:33.540Z,19.63
2023-01-22T00:21:00.871Z,22.27
2023-01-22T00:23:28.172Z,21.87
2023-01-22T00:26:03.832Z,20.83
2023-01-22T00:28:31.372Z,20.20
2023-01-22T00:31:03.568Z,19.90
2023-01-22T00:33:31.743Z,24.50
2023-01-22T00:36:06.927Z,20.63
2023-01-22T00:38:34.315Z,26.17
2023-01-22T00:41:07.113Z,19.97
2023-01-22T00:43:38.476Z,18.60
2023-01-22T00:46:07.443Z,19.13
2023-01-22T00:48:35.406Z,19.87
2023-01-22T00:51:02.793Z,20.77
2023-01-22T00:53:30.183Z,21.10
2023-01-22T00:55:59.427Z,22.87
2023-01-22T00:58:28.355Z,19.83
2023-01-22T01:00:56.279Z,22.53
2023-01-22T01:03:32.483Z,19.37
2023-01-22T01:06:05.916Z,21.53
2023-01-22T01:08:35.978Z,22.70
2023-01-22T01:11:06.214Z,20.53
2023-01-22T01:13:39.498Z,20.97
2023-01-22T01:16:11.329Z,22.73
2023-01-22T01:18:38.823Z,24.30
2023-01-22T01:21:07.516Z,22.20
2023-01-22T01:23:35.476Z,22.43
2023-01-22T01:26:11.675Z,23.37
2023-01-22T01:28:41.508Z,19.87
2023-01-22T01:31:15.039Z,23.40
2023-01-22T01:33:43.082Z,25.50
2023-01-22T01:36:47.296Z,22.77
2023-01-22T01:39:16.275Z,22.77
2023-01-22T01:41:43.787Z,23.77
2023-01-22T01:44:20.477Z,19.63
2023-01-22T01:47:05.995Z,27.00
2023-01-22T01:49:43.653Z,23.80
2023-01-22T01:52:12.963Z,19.90
2023-01-22T01:54:44.636Z,22.37
2023-01-22T01:57:16.858Z,28.37
2023-01-22T01:59:46.285Z,22.83
2023-01-22T02:02:14.026Z,21.77
2023-01-22T02:04:41.470Z,20.37
2023-01-22T02:07:08.938Z,24.57
2023-01-22T02:09:36.217Z,23.40
2023-01-22T02:12:03.869Z,19.87
2023-01-22T02:14:39.623Z,22.83
2023-01-22T02:17:20.515Z,21.50
2023-01-22T02:19:51.075Z,20.17
2023-01-22T02:22:21.902Z,23.53
2023-01-22T02:24:49.780Z,25.00
2023-01-22T02:27:18.313Z,23.17
2023-01-22T02:29:46.956Z,24.13
2023-01-22T02:32:14.347Z,23.30
2023-01-22T02:34:42.037Z,25.60
2023-01-22T02:37:10.550Z,20.93
2023-01-22T02:39:37.870Z,23.77
2023-01-22T02:42:08.209Z,24.63
2023-01-22T02:44:36.579Z,27.57
2023-01-22T02:47:04.009Z,22.63
2023-01-22T02:49:32.483Z,23.93
2023-01-22T02:52:01.089Z,20.77
2023-01-22T02:54:29.412Z,22.93
2023-01-22T02:56:56.742Z,22.63
2023-01-22T02:59:24.185Z,22.83
2023-01-22T03:01:51.894Z,21.43
2023-01-22T03:04:19.269Z,24.17
2023-01-22T03:06:47.624Z,20.10
2023-01-22T03:09:17.779Z,25.40
2023-01-22T03:11:46.879Z,25.27
2023-01-22T03:14:40.010Z,22.03
2023-01-22T03:17:27.065Z,23.73
2023-01-22T03:20:12.848Z,25.90
2023-01-22T03:22:40.132Z,22.23
2023-01-22T03:25:07.867Z,23.30
2023-01-22T03:27:36.886Z,22.53
2023-01-22T03:30:04.697Z,22.23
2023-01-22T03:32:35.064Z,24.17
2023-01-22T03:35:02.519Z,26.80
2023-01-22T03:37:41.634Z,21.70
2023-01-22T03:40:11.020Z,22.40
2023-01-22T03:42:39.803Z,24.27
2023-01-22T03:45:07.839Z,23.50
2023-01-22T03:47:38.397Z,23.43
2023-01-22T03:50:19.579Z,22.13
2023-01-22T03:52:47.117Z,21.17
2023-01-22T03:55:14.390Z,27.07
2023-01-22T03:57:42.132Z,23.93
2023-01-22T04:00:10.078Z,26.43
2023-01-22T04:02:40.260Z,23.03
2023-01-22T04:05:17.959Z,23.43
2023-01-22T04:07:45.373Z,22.53
2023-01-22T04:10:13.964Z,22.80
2023-01-22T04:12:41.711Z,25.33
2023-01-22T04:15:12.675Z,21.37
2023-01-22T04:17:40.049Z,20.23
2023-01-22T04:20:22.871Z,21.60
2023-01-22T04:23:25.708Z,22.97
2023-01-22T04:25:54.219Z,22.73
2023-01-22T04:28:21.666Z,21.70
2023-01-22T04:30:55.186Z,22.83
2023-01-22T04:33:36.357Z,22.70
2023-01-22T04:36:10.278Z,25.33
2023-01-22T04:38:37.910Z,21.50
2023-01-22T04:41:05.290Z,22.50
2023-01-22T04:43:32.910Z,21.80
2023-01-22T04:46:00.173Z,20.67
2023-01-22T04:48:31.137Z,21.40
2023-01-22T04:50:58.386Z,22.77
2023-01-22T04:53:28.786Z,21.93
2023-01-22T04:55:56.081Z,19.73
2023-01-22T04:58:23.429Z,19.90
2023-01-22T05:00:51.886Z,24.47
2023-01-22T05:03:19.277Z,18.67
2023-01-22T05:05:46.532Z,17.87
2023-01-22T05:08:14.078Z,21.20
2023-01-22T05:10:41.435Z,19.83
2023-01-22T05:13:11.492Z,22.20
2023-01-22T05:15:39.651Z,20.50
2023-01-22T05:18:10.384Z,20.20
2023-01-22T05:20:42.352Z,17.83
2023-01-22T05:23:11.434Z,25.30
2023-01-22T05:25:38.811Z,20.83
2023-01-22T05:28:06.661Z,17.80
2023-01-22T05:30:49.224Z,18.13
2023-01-22T05:33:29.411Z,19.17
2023-01-22T05:36:01.816Z,18.43
2023-01-22T05:38:30.731Z,17.30
2023-01-22T05:40:59.200Z,16.47
2023-01-22T05:43:29.160Z,18.83
2023-01-22T05:46:02.190Z,22.20
2023-01-22T05:48:54.198Z,17.53
2023-01-22T05:51:25.706Z,15.80
2023-01-22T05:53:53.419Z,20.40
2023-01-22T05:56:20.958Z,17.77
2023-01-22T05:58:48.343Z,15.83
2023-01-22T06:01:15.677Z,16.80
2023-01-22T06:03:47.569Z,16.80
2023-01-22T06:06:19.040Z,20.40
2023-01-22T06:08:48.193Z,16.73
2023-01-22T06:11:17.012Z,16.00
2023-01-22T06:13:47.880Z,17.67
2023-01-22T06:16:20.225Z,16.57
2023-01-22T06:19:08.640Z,16.77
2023-01-22T06:21:56.190Z,16.90
2023-01-22T06:24:30.515Z,17.80
2023-01-22T06:26:59.141Z,18.63
2023-01-22T06:29:36.004Z,17.03
2023-01-22T06:32:03.554Z,16.03
2023-01-22T06:34:30.772Z,16.53
2023-01-22T06:37:00.171Z,15.00
2023-01-22T06:39:31.478Z,15.50
2023-01-22T06:42:05.626Z,18.03
2023-01-22T06:44:32.988Z,15.70
2023-01-22T06:47:00.315Z,15.67
2023-01-22T06:49:30.030Z,19.60
2023-01-22T06:51:57.271Z,16.47
2023-01-22T06:54:24.532Z,17.03
2023-01-22T06:56:51.966Z,14.97
2023-01-22T06:59:22.413Z,14.87
2023-01-22T07:01:49.737Z,18.70
2023-01-22T07:04:17.033Z,17.07
2023-01-22T07:06:44.626Z,15.17
2023-01-22T07:09:11.895Z,17.40
2023-01-22T07:11:39.160Z,15.70
2023-01-22T07:14:06.383Z,15.93
2023-01-22T07:16:33.619Z,16.97
2023-01-22T07:19:01.086Z,16.27
2023-01-22T07:21:28.347Z,15.13
2023-01-22T07:23:55.657Z,14.20
2023-01-22T07:26:22.994Z,16.40
2023-01-22T07:28:50.283Z,15.83
2023-01-22T07:31:17.568Z,16.73
2023-01-22T07:33:44.826Z,16.37
2023-01-22T07:36:12.140Z,17.27
2023-01-22T07:38:39.420Z,17.37
2023-01-22T07:41:17.145Z,16.07
2023-01-22T07:43:53.179Z,14.57
2023-01-22T07:46:20.576Z,17.70
2023-01-22T07:48:47.805Z,14.53
2023-01-22T07:51:15.207Z,14.90
2023-01-22T07:53:42.835Z,14.53
2023-01-22T07:56:10.155Z,16.70
2023-01-22T07:58:39.203Z,18.33
2023-01-22T08:01:07.631Z,18.57
2023-01-22T08:03:34.941Z,15.37
2023-01-22T08:06:07.297Z,16.80
2023-01-22T08:08:34.679Z,17.63
2023-01-22T08:11:01.972Z,16.63
2023-01-22T08:13:29.200Z,17.57
2023-01-22T08:15:56.639Z,16.47
2023-01-22T08:18:24.031Z,16.40
2023-01-22T08:20:51.455Z,13.70
2023-01-22T08:23:19.851Z,16.13
2023-01-22T08:25:48.347Z,14.67
2023-01-22T08:28:15.558Z,16.10
2023-01-22T08:30:46.534Z,19.27
2023-01-22T08:33:16.105Z,15.07
2023-01-22T08:35:43.459Z,18.93
2023-01-22T08:38:10.754Z,15.03
2023-01-22T08:40:38.229Z,16.17
2023-01-22T08:43:05.438Z,20.13
2023-01-22T08:45:33.210Z,14.97
2023-01-22T08:48:00.517Z,13.90
2023-01-22T08:50:29.245Z,15.57
2023-01-22T08:52:59.384Z,16.97
2023-01-22T08:55:29.682Z,15.37
2023-01-22T08:57:57.244Z,15.10
2023-01-22T09:00:25.269Z,15.07
2023-01-22T09:02:56.320Z,13.87
2023-01-22T09:05:23.557Z,15.03
2023-01-22T09:07:50.705Z,13.33
2023-01-22T09:10:21.326Z,11.17
2023-01-22T09:12:49.194Z,12.50
2023-01-22T09:15:16.482Z,14.97
2023-01-22T09:17:43.806Z,16.60
2023-01-22T09:20:11.135Z,14.47
2023-01-22T09:22:38.429Z,16.93
2023-01-22T09:25:06.367Z,14.63
2023-01-22T09:27:33.635Z,13.27
2023-01-22T09:30:00.878Z,11.97
2023-01-22T09:32:28.233Z,15.10
2023-01-22T09:34:55.683Z,13.10
2023-01-22T09:37:23.048Z,13.00
2023-01-22T09:39:51.112Z,16.03
2023-01-22T09:42:25.708Z,13.53
2023-01-22T09:45:00.543Z,13.30
2023-01-22T09:47:47.592Z,13.83
2023-01-22T09:50:21.054Z,12.33
2023-01-22T09:52:51.638Z,17.70
2023-01-22T09:55:22.248Z,14.73
2023-01-22T09:57:52.600Z,13.60
2023-01-22T10:00:24.009Z,13.80
2023-01-22T10:02:56.410Z,17.23
2023-01-22T10:05:39.853Z,14.70
2023-01-22T10:08:11.611Z,14.33
2023-01-22T10:10:39.422Z,13.67
2023-01-22T10:13:11.381Z,13.13
2023-01-22T10:15:38.880Z,12.90
2023-01-22T10:18:33.310Z,14.37
2023-01-22T10:21:05.977Z,13.07
2023-01-22T10:23:34.462Z,13.97
2023-01-22T10:26:18.603Z,15.17
2023-01-22T10:28:48.896Z,13.50
2023-01-22T10:31:33.607Z,15.03
2023-01-22T10:34:04.183Z,13.50
2023-01-22T10:36:32.035Z,13.37
2023-01-22T10:39:08.232Z,11.40
2023-01-22T10:41:35.632Z,12.97
2023-01-22T10:44:10.281Z,16.03
2023-01-22T10:46:37.577Z,10.17
2023-01-22T10:49:06.249Z,14.23
2023-01-22T10:51:43.856Z,16.93
2023-01-22T10:54:31.416Z,15.03
2023-01-22T10:57:22.411Z,12.40
2023-01-22T11:00:06.114Z,13.33
2023-01-22T11:02:36.258Z,16.93
2023-01-22T11:05:14.293Z,13.83
2023-01-22T11:07:43.981Z,18.50
2023-01-22T11:10:23.505Z,14.77
2023-01-22T11:12:57.516Z,13.07
2023-01-22T11:15:59.303Z,14.73
2023-01-22T11:18:36.909Z,13.13
2023-01-22T11:21:15.552Z,14.50
2023-01-22T11:24:12.014Z,15.80
2023-01-22T11:26:57.824Z,13.87
2023-01-22T11:29:50.837Z,13.80
2023-01-22T11:32:23.914Z,15.80
2023-01-22T11:35:17.035Z,18.57
2023-01-22T11:38:04.362Z,16.20
2023-01-22T11:40:34.969Z,14.40
2023-01-22T11:43:55.771Z,13.63
2023-01-22T11:46:44.172Z,14.33
2023-01-22T11:49:37.122Z,13.33
2023-01-22T11:52:39.102Z,15.73
2023-01-22T11:55:41.866Z,14.10
2023-01-22T11:58:25.692Z,12.67
2023-01-22T12:01:18.541Z,13.10
2023-01-22T12:04:14.960Z,12.93
2023-01-22T12:06:54.809Z,12.03
2023-01-22T12:09:32.004Z,12.97
2023-01-22T12:12:14.307Z,12.17
2023-01-22T12:15:16.716Z,15.70
2023-01-22T12:17:51.073Z,15.33
2023-01-22T12:20:30.243Z,16.67
2023-01-22T12:23:13.734Z,15.37
2023-01-22T12:26:04.185Z,14.93
2023-01-22T12:28:58.965Z,14.50
2023-01-22T12:31:51.106Z,16.67
2023-01-22T12:34:50.511Z,15.10
2023-01-22T12:37:23.004Z,16.30
2023-01-22T12:40:02.639Z,14.83
2023-01-22T12:42:32.646Z,16.50
2023-01-22T12:45:24.943Z,15.90
2023-01-22T12:47:58.257Z,16.33
2023-01-22T12:50:26.703Z,18.97
2023-01-22T12:53:03.001Z,15.17
2023-01-22T12:55:38.132Z,15.40
2023-01-22T12:58:17.575Z,16.60
2023-01-22T13:00:44.826Z,16.37
2023-01-22T13:03:32.439Z,17.67
2023-01-22T13:06:03.177Z,17.57
2023-01-22T13:08:41.144Z,19.37
2023-01-22T13:11:14.527Z,16.93
2023-01-22T13:13:48.261Z,16.30
2023-01-22T13:16:15.507Z,19.10
2023-01-22T13:18:47.083Z,16.93
2023-01-22T13:21:17.431Z,17.40
2023-01-22T13:23:49.281Z,15.53
2023-01-22T13:26:26.171Z,16.73
2023-01-22T13:29:19.161Z,19.17
2023-01-22T13:31:58.044Z,18.33
2023-01-22T13:34:26.336Z,17.97
2023-01-22T13:36:54.147Z,15.27
2023-01-22T13:39:32.667Z,16.23
2023-01-22T13:42:03.113Z,15.57
2023-01-22T13:44:39.693Z,15.77
2023-01-22T13:47:07.207Z,17.77
2023-01-22T13:49:43.134Z,15.97
2023-01-22T13:52:16.718Z,16.97
2023-01-22T13:54:54.134Z,13.83
2023-01-22T13:57:22.543Z,15.70
2023-01-22T13:59:57.659Z,14.97
2023-01-22T14:02:30.430Z,14.77
2023-01-22T14:04:58.416Z,16.23
2023-01-22T14:07:39.546Z,14.23
2023-01-22T14:10:14.969Z,12.63
2023-01-22T14:12:42.813Z,13.43
2023-01-22T14:15:19.642Z,12.07
2023-01-22T14:17:49.023Z,11.10
2023-01-22T14:20:18.041Z,10.17
2023-01-22T14:22:45.543Z,9.63
2023-01-22T14:25:12.845Z,11.80
2023-01-22T14:27:47.076Z,10.90
2023-01-22T14:30:17.377Z,9.70
2023-01-22T14:32:46.026Z,10.07
2023-01-22T14:35:18.622Z,9.87
2023-01-22T14:37:46.800Z,10.47
2023-01-22T14:40:17.186Z,14.03
2023-01-22T14:42:46.809Z,14.53
2023-01-22T14:45:16.720Z,17.97
2023-01-22T14:47:44.436Z,15.40
2023-01-22T14:50:11.912Z,16.77
2023-01-22T14:52:39.302Z,14.57
2023-01-22T14:55:06.847Z,16.43
2023-01-22T14:57:34.164Z,19.73
2023-01-22T15:00:02.566Z,17.60
2023-01-22T15:02:30.183Z,17.10
2023-01-22T15:04:57.471Z,20.70
2023-01-22T15:07:25.349Z,17.00
2023-01-22T15:09:52.558Z,13.77
2023-01-22T15:12:19.762Z,13.90
2023-01-22T15:14:47.073Z,15.17
2023-01-22T15:17:14.362Z,14.40
2023-01-22T15:19:41.996Z,12.10
2023-01-22T15:22:10.031Z,11.93
2023-01-22T15:24:39.302Z,10.00
2023-01-22T15:27:07.367Z,12.07
2023-01-22T15:29:34.658Z,13.37
2023-01-22T15:32:02.067Z,11.73
2023-01-22T15:34:29.311Z,13.20
2023-01-22T15:36:56.558Z,12.17
2023-01-22T15:39:23.828Z,12.30
2023-01-22T15:41:51.169Z,13.17
2023-01-22T15:44:18.503Z,13.07
2023-01-22T15:46:46.266Z,11.17
2023-01-22T15:49:13.853Z,12.90
2023-01-22T15:51:42.147Z,12.20
2023-01-22T15:54:15.138Z,11.87
2023-01-22T15:56:43.273Z,13.33
2023-01-22T15:59:11.665Z,11.47
2023-01-22T16:01:39.237Z,10.67
2023-01-22T16:04:07.103Z,14.70
2023-01-22T16:06:35.019Z,16.70
2023-01-22T16:09:04.382Z,17.80
2023-01-22T16:11:32.908Z,18.77
2023-01-22T16:14:00.752Z,21.07
2023-01-22T16:16:31.301Z,19.90
2023-01-22T16:19:01.045Z,20.50
2023-01-22T16:21:28.486Z,19.27
2023-01-22T16:23:58.297Z,18.90
2023-01-22T16:26:31.325Z,21.83
2023-01-22T16:29:00.259Z,19.13
2023-01-22T16:31:31.077Z,24.83
2023-01-22T16:34:08.177Z,24.00
2023-01-22T16:36:35.885Z,21.67
2023-01-22T16:39:04.762Z,24.17
2023-01-22T16:41:34.827Z,24.33
2023-01-22T16:44:06.160Z,23.13
2023-01-22T16:46:35.230Z,23.80
2023-01-22T16:49:08.117Z,24.97
2023-01-22T16:51:38.400Z,24.53
2023-01-22T16:54:07.210Z,22.23
2023-01-22T16:56:35.184Z,24.37
2023-01-22T16:59:02.535Z,22.60
2023-01-22T17:01:33.857Z,25.57
2023-01-22T17:04:01.151Z,23.23
2023-01-22T17:06:39.757Z,24.70
2023-01-22T17:09:11.962Z,23.33
2023-01-22T17:11:39.573Z,21.67
2023-01-22T17:14:07.958Z,21.83
2023-01-22T17:16:36.180Z,25.57
2023-01-22T17:19:04.340Z,20.00
2023-01-22T17:21:31.670Z,18.43
2023-01-22T17:23:59.232Z,18.80
2023-01-22T17:26:26.647Z,21.43
2023-01-22T17:28:54.260Z,19.43
2023-01-22T17:31:24.701Z,25.37
2023-01-22T17:33:55.433Z,22.83
2023-01-22T17:36:28.355Z,21.93
2023-01-22T17:38:56.808Z,23.93
2023-01-22T17:41:25.791Z,31.30
2023-01-22T17:43:55.319Z,25.57
2023-01-22T17:46:26.843Z,24.50
2023-01-22T17:48:54.840Z,25.63
2023-01-22T17:51:24.727Z,30.43
2023-01-22T17:53:54.632Z,25.73
2023-01-22T17:56:26.068Z,26.63
2023-01-22T17:59:01.616Z,30.20
2023-01-22T18:01:31.209Z,26.53
2023-01-22T18:04:01.504Z,26.23
2023-01-22T18:06:29.464Z,25.53
2023-01-22T18:08:57.003Z,27.63
2023-01-22T18:11:29.542Z,25.60
2023-01-22T18:14:06.646Z,26.70
2023-01-22T18:16:35.776Z,25.27
2023-01-22T18:19:07.127Z,26.87
2023-01-22T18:21:36.230Z,24.67
2023-01-22T18:24:05.437Z,24.50
2023-01-22T18:26:33.988Z,29.27
2023-01-22T18:29:01.641Z,32.17
2023-01-22T18:31:29.932Z,25.23
2023-01-22T18:34:02.255Z,28.20
2023-01-22T18:36:33.656Z,29.77
2023-01-22T18:39:05.279Z,28.83
2023-01-22T18:41:32.840Z,27.33
2023-01-22T18:44:01.615Z,26.17
2023-01-22T18:46:33.209Z,31.47
2023-01-22T18:49:06.365Z,33.33
2023-01-22T18:51:33.772Z,28.80
2023-01-22T18:54:05.344Z,26.17
2023-01-22T18:56:32.926Z,24.97
2023-01-22T18:59:00.671Z,27.13
2023-01-22T19:01:30.884Z,21.13
2023-01-22T19:04:00.491Z,21.33
2023-01-22T19:06:31.854Z,25.93
2023-01-22T19:09:02.571Z,28.33
2023-01-22T19:11:32.046Z,20.37
2023-01-22T19:14:00.308Z,22.30
2023-01-22T19:16:28.345Z,23.33
2023-01-22T19:18:58.089Z,22.50
2023-01-22T19:21:26.799Z,21.77
2023-01-22T19:23:56.411Z,23.00
2023-01-22T19:26:30.567Z,23.27
2023-01-22T19:29:04.507Z,24.33
2023-01-22T19:31:34.921Z,26.80
2023-01-22T19:34:03.040Z,24.57
2023-01-22T19:36:32.670Z,27.47
2023-01-22T19:39:02.867Z,21.00
2023-01-22T19:41:30.456Z,25.00
2023-01-22T19:44:00.140Z,27.93
2023-01-22T19:46:28.503Z,24.70
2023-01-22T19:48:56.784Z,25.40
2023-01-22T19:51:27.015Z,29.40
2023-01-22T19:53:54.763Z,22.00
2023-01-22T19:56:28.393Z,23.73
2023-01-22T19:58:59.884Z,25.93
2023-01-22T20:01:27.159Z,26.80
2023-01-22T20:03:55.662Z,28.50
2023-01-22T20:06:24.126Z,29.60
2023-01-22T20:08:52.254Z,24.60
2023-01-22T20:11:19.632Z,22.00
2023-01-22T20:13:47.480Z,24.57
2023-01-22T20:16:20.220Z,20.47
2023-01-22T20:18:48.535Z,21.03
2023-01-22T20:21:17.007Z,28.80
2023-01-22T20:23:45.526Z,23.07
2023-01-22T20:26:13.784Z,22.20
2023-01-22T20:28:41.503Z,24.33
2023-01-22T20:31:13.033Z,22.93
2023-01-22T20:33:40.489Z,25.30
2023-01-22T20:36:10.998Z,24.83
2023-01-22T20:38:38.240Z,25.13
2023-01-22T20:41:09.197Z,23.37
2023-01-22T20:43:39.124Z,28.27
2023-01-22T20:46:10.469Z,25.67
2023-01-22T20:48:37.814Z,28.13
2023-01-22T20:51:05.420Z,26.60
2023-01-22T20:53:32.723Z,28.57
2023-01-22T20:56:02.780Z,27.20
2023-01-22T20:58:30.308Z,36.17
2023-01-22T21:01:24.355Z,31.60
2023-01-22T21:03:52.128Z,35.23
2023-01-22T21:06:20.569Z,34.27
2023-01-22T21:08:52.803Z,33.23
2023-01-22T21:11:21.122Z,31.57
2023-01-22T21:13:50.702Z,32.77
2023-01-22T21:16:26.191Z,28.13
2023-01-22T21:19:01.823Z,36.73
2023-01-22T21:21:30.524Z,37.70
2023-01-22T21:23:58.416Z,28.20
2023-01-22T21:26:28.098Z,35.77
2023-01-22T21:29:01.365Z,32.23
2023-01-22T21:31:29.088Z,28.43
2023-01-22T21:34:04.254Z,27.93
2023-01-22T21:36:40.382Z,32.27
2023-01-22T21:39:12.336Z,31.97
2023-01-22T21:41:41.996Z,31.37
2023-01-22T21:44:33.387Z,29.40
2023-01-22T21:47:01.059Z,29.27
2023-01-22T21:49:28.743Z,27.00
2023-01-22T21:52:09.345Z,27.60
2023-01-22T21:54:39.286Z,30.67
2023-01-22T21:57:08.115Z,32.60
2023-01-22T21:59:36.817Z,29.77
2023-01-22T22:02:04.790Z,29.20
2023-01-22T22:04:32.318Z,32.87
2023-01-22T22:06:59.534Z,32.47
2023-01-22T22:09:28.697Z,31.20
2023-01-22T22:11:58.113Z,27.43
2023-01-22T22:14:25.837Z,29.87
2023-01-22T22:16:53.945Z,32.83
2023-01-22T22:19:22.284Z,31.07
2023-01-22T22:21:50.994Z,30.20
2023-01-22T22:24:19.641Z,26.77
2023-01-22T22:26:46.926Z,28.37
2023-01-22T22:29:14.127Z,28.97
2023-01-22T22:31:41.371Z,28.60
2023-01-22T22:34:08.822Z,26.53
2023-01-22T22:36:36.179Z,28.47
2023-01-22T22:39:06.352Z,35.33
2023-01-22T22:41:36.883Z,28.27
2023-01-22T22:44:05.481Z,26.33
2023-01-22T22:46:38.139Z,26.33
2023-01-22T22:49:06.673Z,29.60
2023-01-22T22:51:38.991Z,31.03
2023-01-22T22:54:17.753Z,26.70
2023-01-22T22:56:46.399Z,28.80
2023-01-22T22:59:15.163Z,33.27
2023-01-22T23:01:42.723Z,27.83
2023-01-22T23:04:11.709Z,32.37
2023-01-22T23:06:41.939Z,30.53
2023-01-22T23:09:14.276Z,27.80
2023-01-22T23:11:41.697Z,29.00
2023-01-22T23:14:10.017Z,25.80
2023-01-22T23:16:40.332Z,23.10
2023-01-22T23:19:12.956Z,26.47
2023-01-22T23:21:41.568Z,24.43
2023-01-22T23:24:10.926Z,26.53
2023-01-22T23:26:40.084Z,26.50
2023-01-22T23:29:11.405Z,29.20
2023-01-22T23:31:39.924Z,25.97
2023-01-22T23:34:16.137Z,26.60
2023-01-22T23:36:45.211Z,26.03
2023-01-22T23:39:14.596Z,23.47
2023-01-22T23:41:42.860Z,25.40
2023-01-22T23:44:10.171Z,21.43
2023-01-22T23:46:38.670Z,24.83
2023-01-22T23:49:06.310Z,28.40
2023-01-22T23:51:33.646Z,27.80
2023-01-22T23:54:01.043Z,25.37
2023-01-22T23:56:32.178Z,25.20
2023-01-22T23:58:59.935Z,23.13
